Flight Track Log - Related Links

Times and Time Zones

All times are in EDT time to prevent confusion due to time zone crossing. See the DAL2025 flight status page for this flight to view local times or setup timezone preferences in your user account.

Time Position Orientation Groundspeed Altitude Reporting Facility
EDT Latitude Longitude Course Direction KTS MPH feet Rate Location/Type
Wed 08:49:06 AM 33.6167 -84.5000 53° Northeast 231 266 3,200  Level Atlanta TRACON
Wed 08:50:05 AM 33.5886 -84.5750 246° West 324 373 6,000 3,025 Climbing Atlanta Center
Wed 08:51:00 AM 33.7241 -84.0210 54° Northeast  Level FlightAware Approximate
Wed 08:51:05 AM 33.5069 -84.5894 188° South 304 350 9,200  Level Atlanta Center
Wed 08:52:00 AM 33.7910 -83.9097 54° Northeast  Level FlightAware Approximate
Wed 08:52:05 AM 33.4553 -84.5144 130° Southeast 326 375 11,100  Level Atlanta Center
Wed 08:53:00 AM 33.8578 -83.7982 54° Northeast  Level FlightAware Approximate
Wed 08:53:05 AM 33.4556 -84.3800 90° East 338 389 13,100  Level Atlanta Center
Wed 08:54:00 AM 33.9313 -83.6932 53° Northeast  Level FlightAware Approximate
Wed 08:54:05 AM 33.4872 -84.2531 73° East 378 435 14,800  Level Atlanta Center
Wed 08:55:05 AM 33.5917 -84.1858 28° Northeast 377 434 17,000 2,100 Climbing Atlanta Center
Wed 08:56:05 AM 33.6983 -84.1186 28° Northeast 409 471 19,000 1,800 Climbing Atlanta Center
Wed 08:57:05 AM 33.7839 -84.0114 46° Northeast 429 494 20,600 1,700 Climbing Atlanta Center
Wed 08:58:05 AM 33.8464 -83.8786 60° Northeast 437 503 22,400 1,400 Climbing Atlanta Center
Wed 08:59:05 AM 33.9128 -83.7433 59° Northeast 456 525 23,400 1,000 Climbing Atlanta Center
Wed 09:00:05 AM 33.9897 -83.6153 54° Northeast 467 537 24,400 1,300 Climbing Atlanta Center
Wed 09:01:05 AM 34.0728 -83.4869 52° Northeast 478 550 26,000 1,650 Climbing Atlanta Center
Wed 09:02:05 AM 34.1492 -83.3636 53° Northeast 473 544 27,700 1,450 Climbing Atlanta Center
Wed 09:03:05 AM 34.2278 -83.2397 52° Northeast 467 537 28,900 1,350 Climbing Atlanta Center
Wed 09:04:05 AM 34.3064 -83.1158 52° Northeast 462 532 30,400 1,050 Climbing Atlanta Center
Wed 09:05:05 AM 34.3825 -82.9867 54° Northeast 462 532 31,000 300 Climbing Atlanta Center
Wed 09:06:05 AM 34.4544 -82.8622 55° Northeast 457 526 31,000  Level Atlanta Center
Wed 09:07:05 AM 34.5283 -82.7528 51° Northeast 457 526 31,000  Level Atlanta Center
Wed 09:08:05 AM 34.6042 -82.6281 54° Northeast 457 526 31,000  Level Atlanta Center
Wed 09:09:05 AM 34.6903 -82.4953 52° Northeast 457 526 31,000  Level Atlanta Center
Wed 09:10:05 AM 34.7681 -82.3675 53° Northeast 457 526 31,000  Level Atlanta Center
Wed 09:11:05 AM 34.8456 -82.2392 54° Northeast 462 532 31,000  Level Atlanta Center
Wed 09:12:05 AM 34.9147 -82.1289 53° Northeast 456 525 31,000  Level Atlanta Center
Wed 09:13:05 AM 34.9981 -81.9925 53° Northeast 456 525 31,000  Level Atlanta Center
Wed 09:14:05 AM 35.0708 -81.8589 56° Northeast 461 531 31,000  Level Atlanta Center
Wed 09:15:05 AM 35.1414 -81.7275 57° Northeast 461 531 31,000  Level Atlanta Center
Wed 09:16:05 AM 35.2119 -81.5908 58° Northeast 469 540 31,000  Level Atlanta Center
Wed 09:17:05 AM 35.2822 -81.4589 57° Northeast 463 533 31,000  Level Atlanta Center
Wed 09:18:05 AM 35.3522 -81.3217 58° Northeast 463 533 31,000  Level Atlanta Center
Wed 09:19:05 AM 35.4222 -81.1869 57° Northeast 463 533 31,000  Level Atlanta Center
Wed 09:20:05 AM 35.4919 -81.0467 59° Northeast 463 533 31,000  Level Atlanta Center
Wed 09:21:05 AM 35.5636 -80.9139 56° Northeast 468 539 31,000  Level Atlanta Center
Wed 09:22:05 AM 35.6353 -80.7783 57° Northeast 468 539 31,000  Level Atlanta Center
Wed 09:23:05 AM 35.7047 -80.6450 57° Northeast 468 539 31,000  Level Atlanta Center
Wed 09:24:05 AM 35.7739 -80.5117 57° Northeast 468 539 31,000  Level Atlanta Center
Wed 09:25:05 AM 35.8428 -80.3731 58° Northeast 468 539 31,000  Level Atlanta Center
Wed 09:26:05 AM 35.9097 -80.2367 59° Northeast 468 539 31,000  Level Atlanta Center
Wed 09:28:03 AM 36.0467 -79.9747 57° Northeast 460 529 31,000  Level Washington Center
Wed 09:29:01 AM 36.1203 -79.8425 55° Northeast 467 537 31,000  Level Washington Center
Wed 09:30:02 AM 36.1978 -79.7103 54° Northeast 467 537 31,000  Level Washington Center
Wed 09:31:03 AM 36.2711 -79.5775 56° Northeast 473 544 31,000  Level Washington Center
Wed 09:32:01 AM 36.3467 -79.4447 55° Northeast 473 544 31,000  Level Washington Center
Wed 09:33:02 AM 36.4131 -79.3242 56° Northeast 473 544 31,000  Level Washington Center
Wed 09:34:03 AM 36.4881 -79.1881 56° Northeast 478 550 31,000  Level Washington Center
Wed 09:35:03 AM 36.5739 -79.0369 55° Northeast 478 550 31,000 -763 Level Washington Center
Wed 09:36:01 AM 36.6486 -78.9031 55° Northeast 478 550 29,500 -1,008 Descending Washington Center
Wed 09:37:02 AM 36.7256 -78.7611 56° Northeast 478 550 29,000 -246 Descending Washington Center
Wed 09:38:03 AM 36.8022 -78.6217 55° Northeast 478 550 29,000 -454 Level Washington Center
Wed 09:39:01 AM 36.8719 -78.4972 55° Northeast 478 550 28,100 -1,008 Descending Washington Center
Wed 09:40:02 AM 36.9503 -78.3572 55° Northeast 484 557 27,000 -545 Descending Washington Center
Wed 09:41:02 AM 37.0267 -78.2142 56° Northeast 490 564 27,000  Level Washington Center
Wed 09:42:03 AM 37.1092 -78.0581 56° Northeast 490 564 27,000  Level Washington Center
Wed 09:43:03 AM 37.1850 -77.9147 56° Northeast 490 564 27,000  Level Washington Center
Wed 09:44:01 AM 37.2608 -77.7733 56° Northeast 490 564 27,000 -202 Level Washington Center
Wed 09:45:02 AM 37.3711 -77.6719 36° Northeast 481 554 26,600 -1,475 Descending Washington Center
Wed 09:46:03 AM 37.4992 -77.6100 21° North 473 544 24,000 -1,815 Descending Washington Center
Wed 09:47:01 AM 37.6194 -77.5372 26° Northeast 478 550 23,000 -508 Descending Washington Center
Wed 09:48:01 AM 37.7161 -77.4897 21° North 471 542 23,000  Level Washington Center
Wed 09:49:02 AM 37.8611 -77.4144 22° Northeast 465 535 23,000 -49 Level Washington Center
Wed 09:50:03 AM 37.9811 -77.3517 22° Northeast 460 529 22,900 -1,160 Descending Washington Center
Wed 09:51:01 AM 38.0839 -77.2958 23° Northeast 454 522 20,700 -2,471 Descending Washington Center
Wed 09:52:02 AM 38.1994 -77.2378 22° Northeast 449 517 18,000 -2,529 Descending Washington Center
Wed 09:53:02 AM 38.3067 -77.1767 24° Northeast 437 503 15,600 -1,750 Descending Washington Center
Wed 09:54:02 AM 38.4056 -77.1100 28° Northeast 417 480 14,500 -1,438 Descending Washington Center
Wed 09:55:03 AM 38.4858 -77.0161 42° Northeast 396 456 12,700 -1,488 Descending Washington Center
Wed 09:56:03 AM 38.5600 -76.9219 45° Northeast 380 437 11,500 -1,119 Descending Washington Center
Wed 09:57:01 AM 38.6253 -76.8433 43° Northeast 350 403 10,500 -1,220 Descending Washington Center
Wed 09:58:01 AM 38.6886 -76.7672 43° Northeast 325 374 9,100 -1,140 Descending Washington Center
Wed 09:59:02 AM 38.7353 -76.6828 55° Northeast 300 345 8,200 -1,240 Descending Washington Center
Wed 10:00:02 AM 38.7736 -76.5875 63° Northeast 294 338 6,600 -1,108 Descending Washington Center
Wed 10:01:12 AM 38.8667 -76.5333 24° Northeast 276 318 5,800 -794 Descending Potomac TRACON
Wed 10:02:18 AM 38.9333 -76.5500 349° North 243 280 4,800 -1,190 Descending Potomac TRACON
Wed 10:03:13 AM 38.9833 -76.5833 333° Northwest 226 260 3,400 -1,304 Descending Potomac TRACON
Wed 10:04:13 AM 39.0500 -76.6000 349° North 211 243 2,300 -1,100 Descending Potomac TRACON

Login

Don't have an account? Register now (free) for customized features, flight alerts, and more!